createdAt,value
2023-05-13T00:08:45.401Z,3.67
2023-05-13T00:18:49.940Z,3.67
2023-05-13T00:28:52.842Z,3.90
2023-05-13T00:38:57.529Z,4.40
2023-05-13T00:49:01.437Z,5.05
2023-05-13T00:59:05.933Z,4.60
2023-05-13T01:09:16.483Z,4.88
2023-05-13T01:19:42.746Z,4.85
2023-05-13T01:29:48.358Z,7.75
2023-05-13T01:39:51.884Z,6.28
2023-05-13T01:49:56.465Z,5.80
2023-05-13T01:59:59.391Z,4.93
2023-05-13T02:10:04.108Z,5.00
2023-05-13T02:20:08.711Z,4.90
2023-05-13T02:30:13.982Z,5.40
2023-05-13T02:40:17.092Z,4.30
2023-05-13T02:50:22.147Z,4.50
2023-05-13T03:00:25.365Z,5.22
2023-05-13T03:10:30.790Z,4.88
2023-05-13T03:20:33.975Z,4.40
2023-05-13T03:30:38.306Z,4.72
2023-05-13T03:40:41.204Z,4.47
2023-05-13T03:50:46.012Z,3.97
2023-05-13T04:00:49.316Z,4.47
2023-05-13T04:10:53.831Z,3.95
2023-05-13T04:20:56.699Z,4.50
2023-05-13T04:31:03.064Z,3.97
2023-05-13T04:51:10.102Z,4.03
2023-05-13T05:01:13.598Z,3.97
2023-05-13T05:11:17.915Z,3.20
2023-05-13T05:21:20.782Z,3.33
2023-05-13T05:31:27.265Z,3.17
2023-05-13T05:41:30.309Z,3.33
2023-05-13T05:51:34.774Z,2.92
2023-05-13T06:01:37.753Z,3.85
2023-05-13T06:11:41.976Z,3.50
2023-05-13T06:21:45.404Z,3.08
2023-05-13T06:31:50.219Z,3.38
2023-05-13T06:41:53.233Z,2.88
2023-05-13T06:51:57.546Z,2.88
2023-05-13T07:02:01.136Z,3.50
2023-05-13T07:12:06.025Z,3.35
2023-05-13T07:22:09.496Z,2.95
2023-05-13T07:32:13.897Z,2.95
2023-05-13T07:42:17.272Z,3.08
2023-05-13T07:52:23.720Z,2.20
2023-05-13T08:02:27.913Z,2.83
2023-05-13T08:12:32.457Z,2.83
2023-05-13T08:22:35.465Z,2.35
2023-05-13T08:32:42.286Z,2.47
2023-05-13T08:42:51.409Z,2.17
2023-05-13T08:52:57.594Z,2.63
2023-05-13T09:03:02.236Z,2.17
2023-05-13T09:13:07.526Z,2.03
2023-05-13T09:23:11.617Z,1.73
2023-05-13T09:33:20.362Z,2.15
2023-05-13T09:43:24.953Z,1.83
2023-05-13T09:53:35.120Z,1.95
2023-05-13T10:03:38.426Z,2.55
2023-05-13T10:13:47.078Z,1.85
2023-05-13T10:23:53.810Z,2.40
2023-05-13T10:33:59.387Z,1.80
2023-05-13T10:44:03.922Z,1.77
2023-05-13T10:54:19.603Z,1.48
2023-05-13T11:04:22.906Z,1.60
2023-05-13T11:14:28.534Z,1.73
2023-05-13T11:24:31.722Z,2.08
2023-05-13T11:34:36.464Z,2.00
2023-05-13T11:44:47.090Z,1.80
2023-05-13T11:54:54.336Z,2.40
2023-05-13T12:05:02.193Z,3.00
2023-05-13T12:15:13.539Z,2.42
2023-05-13T12:25:45.702Z,2.67
2023-05-13T12:35:54.707Z,3.30
2023-05-13T12:45:57.858Z,2.75
2023-05-13T12:56:03.234Z,2.50
2023-05-13T13:06:07.010Z,3.38
2023-05-13T13:16:12.389Z,2.50
2023-05-13T13:26:16.173Z,3.05
2023-05-13T13:36:20.967Z,2.53
2023-05-13T13:46:26.863Z,4.17
2023-05-13T13:56:34.343Z,3.70
2023-05-13T14:06:37.553Z,4.93
2023-05-13T14:16:42.781Z,4.18
2023-05-13T14:26:46.112Z,7.90
2023-05-13T14:36:51.625Z,3.50
2023-05-13T14:46:54.839Z,4.28
2023-05-13T14:57:02.124Z,3.75
2023-05-13T15:07:13.525Z,3.83
2023-05-13T15:17:20.054Z,2.45
2023-05-13T15:27:22.996Z,1.40
2023-05-13T15:37:27.479Z,1.33
2023-05-13T15:47:30.831Z,1.80
2023-05-13T15:57:35.403Z,1.73
2023-05-13T16:07:38.402Z,2.22
2023-05-13T16:17:42.937Z,1.85
2023-05-13T16:27:46.286Z,2.53
2023-05-13T16:37:51.404Z,3.58
2023-05-13T16:47:55.050Z,4.72
2023-05-13T16:58:04.734Z,5.88
2023-05-13T17:08:07.849Z,8.85
2023-05-13T17:18:12.751Z,3.05
2023-05-13T17:28:15.806Z,2.90
2023-05-13T17:38:20.289Z,5.43
2023-05-13T17:48:23.265Z,3.05
2023-05-13T17:58:28.084Z,2.75
2023-05-13T18:08:31.516Z,2.03
2023-05-13T18:18:36.062Z,1.55
2023-05-13T18:28:41.741Z,1.90
2023-05-13T18:38:48.096Z,2.22
2023-05-13T18:48:51.245Z,2.78
2023-05-13T18:58:55.675Z,2.40
2023-05-13T19:08:58.669Z,2.13
2023-05-13T19:19:03.404Z,2.97
2023-05-13T19:29:06.308Z,1.92
2023-05-13T19:39:11.013Z,1.48
2023-05-13T19:49:14.077Z,1.77
2023-05-13T19:59:19.133Z,1.38
2023-05-13T20:09:22.741Z,1.55
2023-05-13T20:19:27.825Z,1.17
2023-05-13T20:29:35.091Z,2.20
2023-05-13T20:39:40.127Z,1.58
2023-05-13T20:49:47.318Z,1.40
2023-05-13T20:59:52.166Z,2.05
2023-05-13T21:09:55.251Z,2.13
2023-05-13T21:19:59.715Z,2.67
2023-05-13T21:30:03.090Z,2.13
2023-05-13T21:40:09.348Z,2.03
2023-05-13T21:50:12.572Z,1.77
2023-05-13T22:00:21.879Z,3.47
2023-05-13T22:10:25.408Z,2.10
2023-05-13T22:20:30.195Z,2.38
2023-05-13T22:30:33.256Z,1.58
2023-05-13T22:40:38.009Z,1.58
2023-05-13T22:50:41.201Z,1.55
2023-05-13T23:00:46.495Z,1.23
2023-05-13T23:10:49.894Z,0.80
2023-05-13T23:20:56.042Z,2.05
2023-05-13T23:30:59.062Z,1.10
2023-05-13T23:41:04.145Z,0.90
2023-05-13T23:51:07.180Z,1.38
